Time;durP1;ratioP1;P1;durP2;ratioP2;P2;SDS_P1;SDS_P2;PMS_P1;PMS_P2;Temp;Humidity;BMP_temperature;BMP_pressure;BME280_temperature;BME280_humidity;BME280_pressure;Samples;Min_cycle;Max_cycle;Signal;HPM_P1;HPM_P2
2020/12/23 00:02:12;;;;;;;17.15;15.85;;;6.90;82.10;;;;;;5011637;29;20046;-75
2020/12/23 00:04:45;;;;;;;17.08;15.88;;;6.90;82.00;;;;;;5014596;29;20076;-74
2020/12/23 00:07:17;;;;;;;17.02;15.93;;;6.90;82.20;;;;;;4995304;29;20058;-75
2020/12/23 00:09:48;;;;;;;16.65;15.55;;;6.90;82.40;;;;;;5012197;29;20054;-76
2020/12/23 00:12:23;;;;;;;16.90;15.70;;;6.90;81.70;;;;;;5003583;29;20046;-75
2020/12/23 00:14:54;;;;;;;17.15;15.95;;;6.90;81.10;;;;;;5010387;29;20050;-76
2020/12/23 00:17:26;;;;;;;16.95;15.75;;;6.90;81.60;;;;;;5006176;29;20099;-76
2020/12/23 00:20:00;;;;;;;16.10;15.00;;;6.90;81.20;;;;;;5003383;29;20066;-76
2020/12/23 00:22:36;;;;;;;16.98;15.68;;;6.80;81.20;;;;;;4989762;29;20051;-75
2020/12/23 00:25:07;;;;;;;17.67;16.42;;;6.80;81.30;;;;;;5009884;29;20051;-76
2020/12/23 00:27:39;;;;;;;16.95;15.85;;;6.80;81.20;;;;;;5007629;29;20050;-75
2020/12/23 00:30:11;;;;;;;16.30;15.20;;;6.80;82.20;;;;;;5005727;29;20360;-76
2020/12/23 00:32:43;;;;;;;16.98;15.80;;;6.70;83.00;;;;;;5007394;29;20106;-76
2020/12/23 00:35:15;;;;;;;16.70;15.60;;;6.70;83.20;;;;;;5017482;29;20047;-76
2020/12/23 00:37:47;;;;;;;17.10;15.90;;;6.70;83.60;;;;;;5012056;29;20075;-76
2020/12/23 00:40:18;;;;;;;16.58;15.40;;;6.70;84.00;;;;;;4994104;29;20050;-76
2020/12/23 00:42:50;;;;;;;17.55;16.35;;;6.70;83.10;;;;;;5003912;29;20055;-75
2020/12/23 00:45:21;;;;;;;16.73;15.45;;;6.70;82.90;;;;;;5005304;29;20042;-75
2020/12/23 00:47:53;;;;;;;16.83;15.63;;;6.60;82.70;;;;;;4988274;29;20117;-75
2020/12/23 00:50:24;;;;;;;16.40;15.18;;;6.60;82.90;;;;;;5008891;29;20069;-74
2020/12/23 00:52:56;;;;;;;16.02;14.93;;;6.60;82.90;;;;;;5002462;29;20624;-75
2020/12/23 00:55:28;;;;;;;16.50;15.35;;;6.60;82.40;;;;;;5003962;29;20137;-76
2020/12/23 00:57:59;;;;;;;16.42;15.32;;;6.60;82.10;;;;;;5007471;29;20054;-75
2020/12/23 01:00:33;;;;;;;16.17;14.95;;;6.60;82.00;;;;;;5004478;29;20054;-75
2020/12/23 01:03:05;;;;;;;16.27;15.18;;;6.60;81.70;;;;;;5004785;29;20069;-75
2020/12/23 01:05:37;;;;;;;16.60;15.50;;;6.60;82.90;;;;;;5005862;29;20050;-75
2020/12/23 01:08:08;;;;;;;16.40;15.30;;;6.60;82.20;;;;;;5003898;29;20064;-75
2020/12/23 01:10:40;;;;;;;16.10;15.00;;;6.60;83.20;;;;;;5007695;29;20076;-75
2020/12/23 01:13:15;;;;;;;16.83;15.57;;;6.60;82.70;;;;;;5005621;29;20397;-76
2020/12/23 01:15:47;;;;;;;16.58;15.48;;;6.60;83.70;;;;;;5004998;29;20106;-76
2020/12/23 01:18:21;;;;;;;16.30;15.20;;;6.60;82.90;;;;;;5007273;29;20068;-76
2020/12/23 01:21:00;;;;;;;17.10;15.90;;;6.50;83.30;;;;;;5014551;29;20097;-75
2020/12/23 01:23:33;;;;;;;17.67;16.40;;;6.50;83.50;;;;;;5007076;29;20083;-76
2020/12/23 01:26:05;;;;;;;16.92;15.82;;;6.50;83.70;;;;;;4998368;29;20100;-76
2020/12/23 01:28:39;;;;;;;17.05;15.85;;;6.40;83.30;;;;;;5001141;29;20108;-76
2020/12/23 01:31:10;;;;;;;16.25;15.13;;;6.50;83.00;;;;;;5000471;29;20112;-75
2020/12/23 01:33:42;;;;;;;16.95;15.75;;;6.50;82.70;;;;;;4974422;29;20055;-74
2020/12/23 01:36:17;;;;;;;17.45;16.15;;;6.50;83.20;;;;;;5015204;29;20057;-75
2020/12/23 01:38:49;;;;;;;16.10;15.00;;;6.40;82.10;;;;;;5004799;29;20045;-75
2020/12/23 01:41:20;;;;;;;16.55;15.45;;;6.40;82.30;;;;;;5009865;29;20580;-74
2020/12/23 01:43:53;;;;;;;17.02;15.82;;;6.30;84.00;;;;;;4997248;29;20092;-75
2020/12/23 01:46:31;;;;;;;16.77;15.68;;;6.30;84.70;;;;;;4991553;29;20129;-75
2020/12/23 01:49:06;;;;;;;17.17;15.98;;;6.40;85.10;;;;;;5007445;29;20510;-75
2020/12/23 01:51:38;;;;;;;16.33;15.23;;;6.40;85.00;;;;;;4989497;29;20472;-75
2020/12/23 01:54:20;;;;;;;16.73;15.48;;;6.50;84.80;;;;;;5004330;29;20053;-75
2020/12/23 01:56:56;;;;;;;16.60;15.50;;;6.50;84.00;;;;;;5006687;29;20056;-75
2020/12/23 01:59:31;;;;;;;16.55;15.45;;;6.40;84.10;;;;;;5013934;29;20046;-76
2020/12/23 02:02:10;;;;;;;17.00;15.75;;;6.40;84.10;;;;;;4990678;29;20054;-75
2020/12/23 02:04:42;;;;;;;16.52;15.43;;;6.40;84.20;;;;;;5003174;29;20050;-76
2020/12/23 02:07:15;;;;;;;16.80;15.50;;;6.40;83.80;;;;;;5015076;29;20042;-75
2020/12/23 02:09:51;;;;;;;16.52;15.43;;;6.40;83.40;;;;;;4980667;29;20069;-75
2020/12/23 02:12:23;;;;;;;16.27;15.18;;;6.40;82.50;;;;;;5003780;29;20437;-75
2020/12/23 02:14:56;;;;;;;16.38;15.20;;;6.40;82.50;;;;;;5009219;29;20046;-74
2020/12/23 02:17:29;;;;;;;16.73;15.52;;;6.30;82.60;;;;;;5004300;29;20046;-74
2020/12/23 02:20:01;;;;;;;16.40;15.20;;;6.40;82.80;;;;;;4999984;29;20509;-74
2020/12/23 02:22:32;;;;;;;16.48;15.30;;;6.30;83.50;;;;;;4990010;29;20050;-74
2020/12/23 02:25:05;;;;;;;16.50;15.40;;;6.40;83.10;;;;;;4994083;29;20046;-75
2020/12/23 02:27:37;;;;;;;16.60;15.40;;;6.30;82.90;;;;;;4996791;29;20061;-75
2020/12/23 02:30:11;;;;;;;16.55;15.45;;;6.30;82.90;;;;;;4992931;29;20050;-74
2020/12/23 02:32:43;;;;;;;17.35;16.15;;;6.30;83.80;;;;;;4994784;29;20493;-75
2020/12/23 02:35:14;;;;;;;16.52;15.43;;;6.30;84.40;;;;;;4995261;29;20068;-75
2020/12/23 02:37:46;;;;;;;17.08;15.88;;;6.30;84.50;;;;;;4996102;29;20070;-74
2020/12/23 02:40:17;;;;;;;17.33;16.13;;;6.40;84.40;;;;;;4994988;29;20107;-75
2020/12/23 02:42:50;;;;;;;17.15;15.85;;;6.40;85.10;;;;;;4994858;29;20158;-75
2020/12/23 02:45:22;;;;;;;17.48;16.13;;;6.40;84.90;;;;;;4991942;29;20046;-75
2020/12/23 02:47:53;;;;;;;17.45;16.25;;;6.50;85.40;;;;;;4993889;29;20062;-75
2020/12/23 02:50:24;;;;;;;17.55;16.25;;;6.50;85.20;;;;;;4995911;29;20053;-75
2020/12/23 02:52:56;;;;;;;17.00;15.80;;;6.50;85.20;;;;;;4995837;29;20118;-75
2020/12/23 02:55:27;;;;;;;16.85;15.65;;;6.50;84.40;;;;;;4995692;29;20517;-76
2020/12/23 02:57:59;;;;;;;17.25;16.05;;;6.50;83.10;;;;;;4991055;29;20054;-76
2020/12/23 03:00:30;;;;;;;16.40;15.20;;;6.50;83.70;;;;;;4996273;29;20042;-75
2020/12/23 03:03:01;;;;;;;17.02;15.60;;;6.50;82.20;;;;;;5002494;29;20447;-76
2020/12/23 03:05:33;;;;;;;16.27;15.18;;;6.50;81.70;;;;;;4993815;29;20049;-76
2020/12/23 03:08:04;;;;;;;16.48;15.38;;;6.40;80.30;;;;;;5000848;29;20042;-75
2020/12/23 03:10:36;;;;;;;16.55;15.45;;;6.40;80.90;;;;;;4994717;29;20429;-75
2020/12/23 03:13:07;;;;;;;16.10;15.00;;;6.40;81.00;;;;;;4990709;29;20134;-75
2020/12/23 03:15:39;;;;;;;17.00;15.70;;;6.40;80.90;;;;;;4994874;29;20053;-76
2020/12/23 03:18:10;;;;;;;16.42;15.32;;;6.40;81.00;;;;;;4996342;29;20050;-75
2020/12/23 03:20:42;;;;;;;16.15;15.05;;;6.40;81.10;;;;;;4995253;29;20053;-75
2020/12/23 03:23:17;;;;;;;15.90;14.80;;;6.40;81.10;;;;;;4995440;29;20095;-73
2020/12/23 03:25:51;;;;;;;16.20;15.10;;;6.40;80.90;;;;;;4994933;29;20096;-75
2020/12/23 03:28:22;;;;;;;17.73;16.33;;;6.40;80.90;;;;;;4994146;29;20394;-75
2020/12/23 03:30:53;;;;;;;15.38;14.38;;;6.40;81.70;;;;;;4993850;29;20050;-76
2020/12/23 03:33:26;;;;;;;16.80;15.60;;;6.40;84.30;;;;;;4996569;29;20090;-76
2020/12/23 03:35:58;;;;;;;16.63;15.43;;;6.40;81.70;;;;;;4992874;29;20077;-76
2020/12/23 03:38:30;;;;;;;16.77;15.57;;;6.30;82.10;;;;;;4995180;29;20049;-75
2020/12/23 03:41:01;;;;;;;16.92;15.73;;;6.30;82.10;;;;;;4993096;29;20422;-75
2020/12/23 03:43:33;;;;;;;16.92;15.80;;;6.30;83.00;;;;;;4993087;29;20054;-75
2020/12/23 03:46:04;;;;;;;16.42;15.32;;;6.30;82.20;;;;;;4994758;29;20054;-76
2020/12/23 03:48:36;;;;;;;16.48;15.38;;;6.40;82.40;;;;;;4987608;29;20768;-76
2020/12/23 03:51:07;;;;;;;16.88;15.77;;;6.30;82.00;;;;;;4993940;29;20057;-75
2020/12/23 03:53:41;;;;;;;16.30;15.20;;;6.30;81.80;;;;;;4993410;29;20069;-75
2020/12/23 03:56:12;;;;;;;16.58;15.32;;;6.40;81.80;;;;;;4993995;29;20823;-75
2020/12/23 03:58:44;;;;;;;16.23;15.13;;;6.40;84.00;;;;;;4995771;29;20042;-75
2020/12/23 04:01:15;;;;;;;16.67;15.48;;;6.40;84.20;;;;;;4995532;29;20459;-75
2020/12/23 04:03:47;;;;;;;16.38;15.27;;;6.40;84.40;;;;;;4994238;29;20110;-75
2020/12/23 04:06:18;;;;;;;16.95;15.80;;;6.40;84.70;;;;;;4995270;29;20810;-75
2020/12/23 04:08:50;;;;;;;16.35;15.25;;;6.50;85.30;;;;;;4993588;29;20054;-75
2020/12/23 04:11:21;;;;;;;16.20;15.10;;;6.50;82.80;;;;;;4994351;29;20077;-75
2020/12/23 04:13:53;;;;;;;16.67;15.57;;;6.40;83.40;;;;;;5001555;29;20106;-75
2020/12/23 04:16:24;;;;;;;16.48;15.38;;;6.40;82.00;;;;;;4992700;29;20553;-75
2020/12/23 04:18:56;;;;;;;15.68;14.57;;;6.40;81.20;;;;;;4995639;29;20052;-74
2020/12/23 04:21:27;;;;;;;16.65;15.48;;;6.40;81.20;;;;;;4993035;29;20058;-75
2020/12/23 04:23:59;;;;;;;15.93;14.82;;;6.00;82.00;;;;;;4995346;29;20602;-74
2020/12/23 04:26:30;;;;;;;15.73;14.50;;;6.00;82.70;;;;;;4992999;29;20199;-74
2020/12/23 04:29:02;;;;;;;15.98;14.88;;;5.90;83.10;;;;;;4993557;29;20058;-74
2020/12/23 04:31:33;;;;;;;16.15;15.05;;;6.00;83.20;;;;;;4993393;29;20462;-74
2020/12/23 04:34:05;;;;;;;16.30;15.20;;;5.90;83.40;;;;;;4995673;29;20046;-74
2020/12/23 04:36:36;;;;;;;16.20;15.10;;;5.90;83.90;;;;;;4993214;29;20066;-75
2020/12/23 04:39:07;;;;;;;16.48;15.27;;;5.90;84.40;;;;;;4995661;29;20476;-75
2020/12/23 04:41:39;;;;;;;16.73;15.60;;;5.80;84.40;;;;;;4994508;29;20426;-75
2020/12/23 04:44:10;;;;;;;16.98;15.57;;;5.80;84.50;;;;;;4994482;29;20111;-75
2020/12/23 04:46:44;;;;;;;17.85;16.55;;;5.80;84.70;;;;;;4991533;29;20058;-75
2020/12/23 04:49:21;;;;;;;17.42;16.13;;;5.80;84.30;;;;;;4993811;29;20058;-75
2020/12/23 04:51:54;;;;;;;17.48;16.17;;;5.80;84.10;;;;;;4997385;29;20118;-75
2020/12/23 04:54:26;;;;;;;18.17;16.77;;;6.00;83.70;;;;;;4994889;29;20056;-75
2020/12/23 04:56:57;;;;;;;17.00;15.70;;;6.10;83.40;;;;;;4994270;29;20114;-75
2020/12/23 04:59:29;;;;;;;17.15;15.95;;;6.10;82.80;;;;;;4994748;29;20044;-75
2020/12/23 05:02:00;;;;;;;16.85;15.65;;;6.10;82.70;;;;;;4993362;29;20054;-75
2020/12/23 05:04:32;;;;;;;17.42;16.10;;;6.20;83.00;;;;;;4993653;29;20047;-75
2020/12/23 05:07:05;;;;;;;16.73;15.63;;;6.20;82.80;;;;;;4993036;29;20459;-75
2020/12/23 05:09:36;;;;;;;16.33;15.20;;;6.20;85.90;;;;;;4996353;29;20098;-76
2020/12/23 05:12:08;;;;;;;16.80;15.60;;;6.20;85.80;;;;;;4993036;29;20066;-75
2020/12/23 05:14:41;;;;;;;17.63;16.15;;;6.20;86.30;;;;;;4995316;29;20167;-75
2020/12/23 05:17:15;;;;;;;16.67;15.57;;;6.20;85.40;;;;;;4996768;29;20062;-75
2020/12/23 05:19:46;;;;;;;17.23;16.02;;;6.20;85.10;;;;;;4994304;29;20050;-75
2020/12/23 05:22:19;;;;;;;17.00;15.80;;;6.20;84.80;;;;;;4994265;29;20050;-75
2020/12/23 05:24:53;;;;;;;16.88;15.68;;;6.20;83.80;;;;;;4996097;29;20054;-75
2020/12/23 05:27:24;;;;;;;16.60;15.27;;;6.10;84.50;;;;;;4993631;29;20058;-74
2020/12/23 05:29:56;;;;;;;17.85;16.55;;;6.10;85.90;;;;;;4990342;29;20094;-74
2020/12/23 05:32:27;;;;;;;17.15;15.95;;;6.20;84.10;;;;;;4996716;29;20796;-74
2020/12/23 05:35:00;;;;;;;17.70;16.35;;;6.30;83.70;;;;;;4992674;29;20114;-74
2020/12/23 05:37:32;;;;;;;17.30;16.00;;;6.30;83.90;;;;;;4996266;29;20146;-74
2020/12/23 05:40:03;;;;;;;17.27;15.98;;;6.30;84.10;;;;;;4991560;29;20142;-74
2020/12/23 05:42:38;;;;;;;17.05;15.63;;;6.30;84.50;;;;;;4993891;29;20502;-73
2020/12/23 05:45:09;;;;;;;17.25;16.05;;;6.30;82.90;;;;;;4989791;29;20047;-72
2020/12/23 05:47:41;;;;;;;16.98;15.70;;;6.30;82.90;;;;;;4992961;29;20046;-74
2020/12/23 05:50:13;;;;;;;16.90;15.70;;;6.30;82.80;;;;;;4991874;29;20046;-74
2020/12/23 05:52:46;;;;;;;17.20;16.00;;;6.40;82.50;;;;;;4995113;29;20505;-74
2020/12/23 05:55:17;;;;;;;16.55;15.35;;;6.40;82.30;;;;;;4996129;29;20513;-74
2020/12/23 05:57:51;;;;;;;16.90;15.60;;;6.40;81.90;;;;;;4992805;29;20046;-74
2020/12/23 06:00:23;;;;;;;17.13;15.82;;;6.40;82.30;;;;;;4989751;29;20054;-75
2020/12/23 06:03:20;;;;;;;17.35;15.95;;;6.40;82.30;;;;;;4999283;29;20117;-74
2020/12/23 06:05:58;;;;;;;17.30;15.75;;;6.40;82.20;;;;;;4993547;29;20050;-74
2020/12/23 06:08:35;;;;;;;16.38;15.18;;;6.40;82.70;;;;;;4990094;29;20046;-74
2020/12/23 06:11:29;;;;;;;16.17;14.98;;;6.40;84.00;;;;;;4988179;29;20383;-75
2020/12/23 06:14:09;;;;;;;16.85;15.63;;;6.40;85.30;;;;;;4989481;29;20464;-73
2020/12/23 06:16:44;;;;;;;17.08;15.88;;;6.40;84.00;;;;;;4989748;29;20130;-75
2020/12/23 06:19:26;;;;;;;16.38;15.20;;;6.40;83.20;;;;;;5003512;29;20107;-74
2020/12/23 06:21:59;;;;;;;16.83;15.60;;;6.40;82.90;;;;;;5001796;29;20042;-74
2020/12/23 06:24:30;;;;;;;17.23;15.93;;;6.40;82.80;;;;;;4992067;29;20106;-74
2020/12/23 06:27:10;;;;;;;19.05;17.55;;;6.50;82.70;;;;;;5005659;29;20129;-75
2020/12/23 06:29:46;;;;;;;20.27;18.67;;;6.50;82.50;;;;;;4993583;29;20064;-74
2020/12/23 06:32:20;;;;;;;17.50;16.20;;;6.50;82.60;;;;;;5005278;29;20046;-73
2020/12/23 06:34:59;;;;;;;16.90;15.70;;;6.50;82.30;;;;;;4990604;29;20954;-73
2020/12/23 06:37:35;;;;;;;17.15;15.90;;;6.50;83.20;;;;;;4989553;29;20046;-75
2020/12/23 06:40:08;;;;;;;16.85;15.65;;;6.50;83.80;;;;;;4992359;29;20047;-74
2020/12/23 06:42:47;;;;;;;17.10;15.93;;;6.50;86.10;;;;;;4992958;29;20042;-76
2020/12/23 06:45:20;;;;;;;16.85;15.68;;;6.50;85.80;;;;;;4989308;29;20541;-75
2020/12/23 06:48:14;;;;;;;17.42;16.23;;;6.50;86.10;;;;;;4994498;29;20054;-76
2020/12/23 06:50:46;;;;;;;17.73;16.52;;;6.60;86.40;;;;;;4994166;29;20053;-75
2020/12/23 06:53:36;;;;;;;17.35;16.15;;;6.60;86.20;;;;;;4992463;29;20073;-76
2020/12/23 06:56:07;;;;;;;;;;;6.60;86.10;;;;;;4990581;29;20073;-75
2020/12/23 06:58:42;;;;;;;17.00;15.80;;;6.70;86.30;;;;;;5005601;29;19974;-75
2020/12/23 07:01:15;;;;;;;16.70;15.60;;;6.70;85.30;;;;;;4993052;29;20042;-76
2020/12/23 07:03:47;;;;;;;16.00;14.90;;;6.70;85.30;;;;;;4990420;29;20065;-76
2020/12/23 07:06:33;;;;;;;16.55;15.35;;;6.80;85.30;;;;;;4991204;29;20062;-74
2020/12/23 07:09:05;;;;;;;16.95;15.75;;;6.80;85.60;;;;;;4973373;29;20173;-75
2020/12/23 07:11:38;;;;;;;16.90;15.60;;;6.80;84.40;;;;;;4997972;29;20411;-75
2020/12/23 07:14:14;;;;;;;16.50;15.30;;;6.80;83.60;;;;;;5005208;29;20527;-77
2020/12/23 07:16:45;;;;;;;16.55;15.35;;;6.80;82.60;;;;;;4996445;29;20438;-75
2020/12/23 07:19:18;;;;;;;16.40;15.10;;;6.80;82.40;;;;;;5006432;29;20063;-75
2020/12/23 07:21:50;;;;;;;16.65;15.43;;;6.80;81.90;;;;;;4996604;29;20527;-76
2020/12/23 07:24:23;;;;;;;16.80;15.50;;;6.70;81.70;;;;;;4995349;29;20046;-74
2020/12/23 07:26:56;;;;;;;14.90;13.80;;;6.70;82.40;;;;;;5000768;29;20110;-75
2020/12/23 07:29:40;;;;;;;15.13;14.02;;;6.70;82.80;;;;;;4997151;29;20046;-75
2020/12/23 07:32:12;;;;;;;15.15;14.05;;;6.60;83.00;;;;;;4993305;29;20050;-75
2020/12/23 07:34:49;;;;;;;15.50;14.40;;;6.60;83.30;;;;;;4997155;29;20045;-75
2020/12/23 07:37:21;;;;;;;15.50;14.40;;;6.50;83.70;;;;;;4996949;29;20517;-75
2020/12/23 07:39:55;;;;;;;15.20;14.10;;;6.50;83.70;;;;;;4995733;29;20410;-75
2020/12/23 07:42:26;;;;;;;15.35;14.18;;;6.60;84.30;;;;;;4992472;29;20485;-76
2020/12/23 07:44:57;;;;;;;16.10;14.90;;;6.60;85.10;;;;;;5008401;29;20057;-75
2020/12/23 07:47:29;;;;;;;15.70;14.50;;;6.70;84.80;;;;;;4994249;29;20078;-75
2020/12/23 07:50:03;;;;;;;15.15;14.05;;;6.70;84.20;;;;;;4991964;29;20046;-75
2020/12/23 07:52:39;;;;;;;15.23;14.13;;;6.70;84.90;;;;;;4988858;29;20057;-75
2020/12/23 07:55:14;;;;;;;16.38;15.07;;;6.80;85.40;;;;;;4995958;29;20409;-75
2020/12/23 07:57:48;;;;;;;15.40;14.30;;;6.80;83.90;;;;;;4996712;29;20026;-75
2020/12/23 08:00:21;;;;;;;15.20;14.10;;;6.80;82.80;;;;;;4994555;29;20050;-75
2020/12/23 08:02:55;;;;;;;15.10;13.90;;;6.80;82.40;;;;;;4996282;29;20042;-75
2020/12/23 08:05:27;;;;;;;15.20;14.02;;;6.80;82.70;;;;;;4994584;29;20063;-75
2020/12/23 08:08:14;;;;;;;14.65;13.45;;;6.70;82.90;;;;;;4994510;29;20416;-76
2020/12/23 08:10:45;;;;;;;14.63;13.43;;;6.60;83.70;;;;;;4993095;29;20069;-75
2020/12/23 08:13:25;;;;;;;15.75;14.65;;;6.50;84.30;;;;;;4980995;29;20102;-76
2020/12/23 08:16:05;;;;;;;15.48;14.27;;;6.50;85.10;;;;;;4995495;29;20113;-75
2020/12/23 08:18:38;;;;;;;14.52;13.43;;;6.60;84.80;;;;;;4994827;29;20042;-75
2020/12/23 08:21:16;;;;;;;14.68;13.48;;;6.60;85.60;;;;;;4992542;29;20070;-75
2020/12/23 08:23:52;;;;;;;14.57;13.48;;;6.80;85.60;;;;;;4993247;29;20053;-74
2020/12/23 08:26:25;;;;;;;18.88;17.17;;;6.80;84.90;;;;;;4994443;29;20046;-73
2020/12/23 08:28:57;;;;;;;20.50;18.65;;;6.90;85.10;;;;;;4994943;29;20054;-74
2020/12/23 08:31:36;;;;;;;23.92;21.42;;;7.00;83.90;;;;;;4994607;29;20074;-75
2020/12/23 08:34:09;;;;;;;18.33;16.83;;;7.10;84.20;;;;;;4994644;29;20428;-74
2020/12/23 08:36:41;;;;;;;14.93;13.82;;;7.00;83.90;;;;;;4997189;29;20443;-74
2020/12/23 08:39:21;;;;;;;15.05;13.82;;;7.10;85.70;;;;;;4996003;29;20111;-74
2020/12/23 08:41:53;;;;;;;14.93;13.82;;;7.20;85.40;;;;;;4989456;29;20069;-74
2020/12/23 08:44:27;;;;;;;15.27;14.18;;;7.20;85.00;;;;;;4992299;29;20043;-74
2020/12/23 08:46:59;;;;;;;16.25;14.85;;;7.30;84.60;;;;;;4993410;29;20390;-74
2020/12/23 08:49:31;;;;;;;17.10;15.73;;;7.30;84.10;;;;;;4992703;29;20041;-73
2020/12/23 08:52:15;;;;;;;15.18;13.93;;;7.40;84.10;;;;;;4993680;29;20122;-74
2020/12/23 08:54:48;;;;;;;16.13;14.80;;;7.40;84.10;;;;;;4996446;29;20048;-74
2020/12/23 08:57:26;;;;;;;16.10;14.90;;;7.50;84.00;;;;;;4993318;29;20042;-74
2020/12/23 08:59:58;;;;;;;15.50;14.40;;;7.60;84.30;;;;;;4994507;29;20498;-73
2020/12/23 09:02:36;;;;;;;17.23;15.82;;;7.60;83.80;;;;;;4993220;29;20069;-72
2020/12/23 09:05:36;;;;;;;17.38;16.08;;;7.60;83.00;;;;;;5003506;29;20048;-72
2020/12/23 09:08:13;;;;;;;16.50;15.30;;;7.70;83.30;;;;;;4988956;29;20107;-73
2020/12/23 09:10:53;;;;;;;15.90;14.70;;;7.70;83.60;;;;;;4994449;29;20046;-73
2020/12/23 09:13:32;;;;;;;15.98;14.77;;;7.70;82.90;;;;;;4992915;29;20038;-72
2020/12/23 09:16:03;;;;;;;15.68;14.48;;;7.60;81.40;;;;;;4993853;29;20046;-73
2020/12/23 09:18:35;;;;;;;15.90;14.70;;;7.60;82.50;;;;;;4993271;29;20923;-74
2020/12/23 09:21:06;;;;;;;15.77;14.57;;;7.70;81.70;;;;;;4992851;29;20054;-72
2020/12/23 09:23:38;;;;;;;15.80;14.68;;;7.80;81.90;;;;;;4991232;29;20060;-73
2020/12/23 09:26:16;;;;;;;15.70;14.50;;;7.80;81.00;;;;;;4993364;29;20101;-72
2020/12/23 09:28:52;;;;;;;15.73;14.60;;;7.70;81.80;;;;;;4994780;29;20516;-72
2020/12/23 09:31:26;;;;;;;15.48;14.27;;;7.70;81.70;;;;;;4998845;29;20091;-72
2020/12/23 09:33:58;;;;;;;16.70;15.40;;;7.70;81.90;;;;;;4993011;29;20576;-73
2020/12/23 09:36:29;;;;;;;16.77;15.57;;;7.80;81.50;;;;;;4995626;29;20050;-73
2020/12/23 09:39:18;;;;;;;15.88;14.68;;;7.80;81.70;;;;;;4999285;29;20160;-72
2020/12/23 09:42:06;;;;;;;15.27;14.07;;;7.80;81.80;;;;;;4994971;29;20107;-72
2020/12/23 09:44:38;;;;;;;15.45;14.35;;;7.80;81.50;;;;;;4994110;29;20082;-72
2020/12/23 09:47:09;;;;;;;15.10;14.00;;;7.80;81.20;;;;;;4991132;29;20077;-72
2020/12/23 09:49:41;;;;;;;16.23;15.02;;;7.90;82.00;;;;;;4991550;29;20053;-72
2020/12/23 09:52:12;;;;;;;16.02;14.85;;;7.90;81.50;;;;;;4994022;29;20516;-72
2020/12/23 09:54:43;;;;;;;16.25;15.15;;;8.00;82.50;;;;;;4992920;29;20046;-73
2020/12/23 09:57:15;;;;;;;15.85;14.75;;;8.00;82.90;;;;;;4993931;29;20058;-72
2020/12/23 09:59:46;;;;;;;14.82;13.73;;;8.10;83.50;;;;;;4978791;29;20501;-72
2020/12/23 10:02:18;;;;;;;16.15;14.85;;;8.20;83.50;;;;;;4977717;29;20065;-73
2020/12/23 10:04:49;;;;;;;16.08;14.95;;;8.20;83.90;;;;;;4994071;29;20760;-74
2020/12/23 10:07:21;;;;;;;17.67;16.35;;;8.30;83.40;;;;;;4989954;29;20098;-74
2020/12/23 10:09:56;;;;;;;17.98;16.55;;;8.40;82.30;;;;;;4988629;29;20050;-73
2020/12/23 10:12:28;;;;;;;17.15;15.75;;;8.40;82.80;;;;;;4992661;29;20046;-73
2020/12/23 10:15:00;;;;;;;16.95;15.65;;;8.40;82.10;;;;;;4991980;29;20054;-73
2020/12/23 10:17:33;;;;;;;18.02;16.63;;;8.50;82.50;;;;;;5006862;29;20074;-72
2020/12/23 10:20:06;;;;;;;17.42;16.13;;;8.60;82.30;;;;;;4992433;29;20728;-72
2020/12/23 10:22:38;;;;;;;18.02;16.63;;;8.70;82.10;;;;;;4993259;29;20175;-72
2020/12/23 10:25:10;;;;;;;17.75;16.42;;;8.80;82.20;;;;;;4994763;29;20038;-72
2020/12/23 10:27:41;;;;;;;17.73;16.40;;;8.90;82.50;;;;;;4992724;29;20034;-73
2020/12/23 10:30:13;;;;;;;19.00;17.38;;;9.00;81.80;;;;;;4947316;29;20059;-72
2020/12/23 10:32:45;;;;;;;18.50;17.00;;;9.10;82.40;;;;;;4943908;29;20050;-73
2020/12/23 10:35:16;;;;;;;18.75;17.25;;;9.30;81.80;;;;;;4928775;30;20640;-73
2020/12/23 10:37:47;;;;;;;17.50;16.20;;;9.40;81.20;;;;;;4924281;29;20044;-73
2020/12/23 10:40:22;;;;;;;18.67;17.23;;;9.50;79.80;;;;;;4922310;29;20101;-72
2020/12/23 10:42:53;;;;;;;17.63;16.30;;;9.60;79.10;;;;;;4940737;29;20051;-72
2020/12/23 10:45:25;;;;;;;17.42;16.05;;;9.60;79.30;;;;;;4928103;29;20458;-72
2020/12/23 10:47:56;;;;;;;17.60;16.40;;;9.70;80.10;;;;;;4929993;30;20723;-73
2020/12/23 10:50:28;;;;;;;17.58;16.27;;;9.80;80.20;;;;;;4929104;29;20394;-72
2020/12/23 10:52:59;;;;;;;18.08;16.67;;;9.90;80.30;;;;;;4929199;30;20055;-72
2020/12/23 10:55:31;;;;;;;17.70;16.40;;;10.10;80.80;;;;;;4930241;29;20453;-72
2020/12/23 10:58:03;;;;;;;18.13;16.63;;;10.20;79.60;;;;;;4931129;30;20055;-72
2020/12/23 11:00:35;;;;;;;17.90;16.60;;;10.30;80.30;;;;;;4932956;29;20064;-72
2020/12/23 11:03:06;;;;;;;18.10;16.75;;;10.40;79.00;;;;;;4946016;29;20056;-71
2020/12/23 11:05:38;;;;;;;18.73;17.33;;;10.50;78.40;;;;;;4927768;30;20934;-71
2020/12/23 11:08:10;;;;;;;18.13;16.83;;;10.70;78.30;;;;;;4929578;30;20530;-71
2020/12/23 11:10:41;;;;;;;18.92;17.48;;;10.80;78.90;;;;;;4929766;29;20063;-71
2020/12/23 11:13:12;;;;;;;17.83;16.50;;;10.80;78.40;;;;;;4926961;30;20568;-71
2020/12/23 11:15:44;;;;;;;18.00;16.70;;;10.90;77.30;;;;;;4927130;29;20044;-72
2020/12/23 11:18:15;;;;;;;17.92;16.42;;;11.00;76.30;;;;;;4929560;30;20051;-73
2020/12/23 11:20:47;;;;;;;17.15;15.95;;;11.00;77.80;;;;;;4929840;29;20056;-72
2020/12/23 11:23:28;;;;;;;17.50;16.20;;;11.00;78.80;;;;;;4929010;30;20040;-72
2020/12/23 11:25:59;;;;;;;17.48;16.17;;;11.10;79.10;;;;;;4929653;29;20056;-72
2020/12/23 11:28:32;;;;;;;18.13;16.83;;;11.10;78.00;;;;;;4930880;30;20055;-71
2020/12/23 11:31:03;;;;;;;18.90;17.40;;;11.10;78.50;;;;;;4928961;29;20056;-71
2020/12/23 11:33:37;;;;;;;18.50;17.10;;;11.10;76.60;;;;;;4929755;30;20153;-72
2020/12/23 11:36:09;;;;;;;17.23;15.82;;;11.20;79.50;;;;;;4929501;29;20425;-72
2020/12/23 11:38:40;;;;;;;16.88;15.68;;;11.20;79.50;;;;;;4929178;30;20058;-72
2020/12/23 11:41:12;;;;;;;17.45;16.08;;;11.10;80.20;;;;;;4929804;29;20052;-71
2020/12/23 11:43:44;;;;;;;17.42;16.13;;;11.20;80.10;;;;;;4929608;29;20044;-72
2020/12/23 11:46:15;;;;;;;17.90;16.60;;;11.20;78.40;;;;;;4929601;29;20052;-72
2020/12/23 11:48:47;;;;;;;17.40;16.10;;;11.30;79.80;;;;;;4928771;30;20093;-72
2020/12/23 11:51:18;;;;;;;17.42;16.13;;;11.30;79.70;;;;;;4928943;30;20519;-73
2020/12/23 11:53:51;;;;;;;16.88;15.68;;;11.30;78.70;;;;;;4930433;29;20089;-72
2020/12/23 11:56:23;;;;;;;17.02;15.73;;;11.30;79.70;;;;;;4932070;29;20071;-72
2020/12/23 11:58:54;;;;;;;17.65;16.35;;;11.30;80.90;;;;;;4931276;30;20044;-72
2020/12/23 12:01:26;;;;;;;17.40;16.20;;;11.30;79.90;;;;;;4943001;29;20079;-72
2020/12/23 12:03:57;;;;;;;17.52;16.23;;;11.30;79.90;;;;;;4946230;29;20047;-72
2020/12/23 12:06:28;;;;;;;17.40;16.10;;;11.40;79.20;;;;;;4928563;29;20058;-72
2020/12/23 12:09:00;;;;;;;17.10;15.90;;;11.40;78.30;;;;;;4929690;30;20087;-72
2020/12/23 12:11:31;;;;;;;16.83;15.63;;;11.30;78.10;;;;;;4926169;29;20600;-72
2020/12/23 12:14:04;;;;;;;17.00;15.80;;;11.40;78.30;;;;;;4941415;29;20606;-74
2020/12/23 12:16:35;;;;;;;17.98;16.67;;;11.40;79.10;;;;;;4924894;29;20059;-72
2020/12/23 12:19:06;;;;;;;18.35;16.95;;;11.50;80.20;;;;;;4926884;30;20484;-72
2020/12/23 12:21:39;;;;;;;17.77;16.48;;;11.50;80.40;;;;;;4928631;29;20047;-71
2020/12/23 12:24:10;;;;;;;17.58;16.27;;;11.50;80.10;;;;;;4928246;30;20050;-71
2020/12/23 12:26:42;;;;;;;18.08;16.67;;;11.50;79.40;;;;;;4926039;29;20052;-71
2020/12/23 12:29:14;;;;;;;18.33;17.02;;;11.60;79.30;;;;;;4941652;29;20047;-71
2020/12/23 12:31:47;;;;;;;17.70;16.40;;;11.60;79.30;;;;;;4939089;29;20059;-71
2020/12/23 12:34:18;;;;;;;18.70;17.15;;;11.60;79.70;;;;;;4925779;30;20054;-71
2020/12/23 12:36:53;;;;;;;18.13;16.75;;;11.60;81.40;;;;;;4927713;29;20055;-72
2020/12/23 12:39:24;;;;;;;20.75;19.05;;;11.60;80.80;;;;;;4928916;30;20070;-72
2020/12/23 12:41:59;;;;;;;18.52;17.13;;;11.70;80.70;;;;;;4927538;29;20052;-73
2020/12/23 12:44:32;;;;;;;17.80;16.45;;;11.70;81.30;;;;;;4923876;30;20467;-72
2020/12/23 12:47:03;;;;;;;17.48;16.20;;;11.60;81.10;;;;;;4924606;30;20056;-73
2020/12/23 12:49:35;;;;;;;17.35;16.05;;;11.70;81.30;;;;;;4927754;30;20051;-73
2020/12/23 12:52:06;;;;;;;17.98;16.58;;;11.60;81.00;;;;;;4925056;29;20121;-72
2020/12/23 12:54:39;;;;;;;24.92;22.58;;;11.60;81.40;;;;;;4928092;30;20526;-76
2020/12/23 12:57:10;;;;;;;23.08;20.83;;;11.60;81.10;;;;;;4927484;29;20055;-75
2020/12/23 12:59:42;;;;;;;46.75;33.35;;;11.70;81.20;;;;;;4927932;30;20059;-72
2020/12/23 13:02:15;;;;;;;26.67;23.88;;;11.60;80.90;;;;;;4926596;29;20174;-74
2020/12/23 13:04:46;;;;;;;30.00;26.75;;;11.60;80.40;;;;;;4928859;30;20051;-76
2020/12/23 13:07:18;;;;;;;25.55;22.90;;;11.60;79.90;;;;;;4940890;29;20109;-73